createdAt,value
2018-12-21T00:00:06.677Z,172.07
2018-12-21T00:02:35.736Z,166.90
2018-12-21T00:05:04.814Z,177.43
2018-12-21T00:07:33.908Z,176.47
2018-12-21T00:10:02.980Z,169.07
2018-12-21T00:12:32.046Z,168.97
2018-12-21T00:15:01.152Z,155.83
2018-12-21T00:17:34.489Z,179.00
2018-12-21T00:19:59.292Z,162.43
2018-12-21T00:22:28.434Z,160.37
2018-12-21T00:24:57.512Z,159.37
2018-12-21T00:27:26.595Z,153.93
2018-12-21T00:29:55.718Z,149.10
2018-12-21T00:32:30.388Z,152.87
2018-12-21T00:35:05.114Z,145.97
2018-12-21T00:37:39.670Z,166.33
2018-12-21T00:40:14.264Z,154.27
2018-12-21T00:42:46.140Z,156.10
2018-12-21T00:45:15.244Z,152.67
2018-12-21T00:47:44.311Z,151.60
2018-12-21T00:50:13.374Z,152.57
2018-12-21T00:52:42.467Z,146.63
2018-12-21T00:55:11.543Z,170.80
2018-12-21T00:57:40.608Z,169.47
2018-12-21T01:00:09.725Z,166.87
2018-12-21T01:02:38.829Z,137.23
2018-12-21T01:05:07.895Z,137.13
2018-12-21T01:07:36.972Z,132.30
2018-12-21T01:10:06.050Z,138.23
2018-12-21T01:12:35.117Z,142.80
2018-12-21T01:15:04.196Z,151.57
2018-12-21T01:17:36.936Z,163.17
2018-12-21T01:20:06.083Z,158.53
2018-12-21T01:22:35.146Z,167.37
2018-12-21T01:25:04.219Z,161.53
2018-12-21T01:27:33.317Z,162.90
2018-12-21T01:30:02.397Z,163.00
2018-12-21T01:32:31.474Z,178.10
2018-12-21T01:35:00.634Z,151.73
2018-12-21T01:37:29.703Z,157.20
2018-12-21T01:39:58.776Z,162.80
2018-12-21T01:42:27.895Z,166.07
2018-12-21T01:44:56.967Z,162.10
2018-12-21T01:47:26.036Z,162.73
2018-12-21T01:49:55.136Z,159.90
2018-12-21T01:52:24.220Z,162.03
2018-12-21T01:54:53.293Z,157.57
2018-12-21T01:57:22.390Z,171.60
2018-12-21T01:59:51.480Z,186.43
2018-12-21T02:02:20.548Z,179.97
2018-12-21T02:04:49.647Z,174.03
2018-12-21T02:07:18.751Z,172.80
2018-12-21T02:09:47.826Z,156.53
2018-12-21T02:12:16.937Z,156.73
2018-12-21T02:14:46.000Z,159.97
2018-12-21T02:17:15.073Z,154.83
2018-12-21T02:19:44.375Z,162.77
2018-12-21T02:22:13.449Z,152.53
2018-12-21T02:24:42.526Z,164.00
2018-12-21T02:27:11.697Z,149.73
2018-12-21T02:29:40.824Z,156.80
2018-12-21T02:32:09.956Z,157.93
2018-12-21T02:34:39.056Z,155.03
2018-12-21T02:37:08.122Z,149.97
2018-12-21T02:39:37.181Z,174.97
2018-12-21T02:42:06.368Z,164.53
2018-12-21T02:44:35.446Z,167.50
2018-12-21T02:47:04.525Z,157.77
2018-12-21T02:49:33.702Z,161.77
2018-12-21T02:52:05.768Z,150.27
2018-12-21T02:54:31.930Z,150.47
2018-12-21T02:57:01.215Z,159.07
2018-12-21T02:59:30.371Z,160.20
2018-12-21T03:01:59.571Z,167.47
2018-12-21T03:04:28.703Z,177.27
2018-12-21T03:06:57.774Z,171.67
2018-12-21T03:09:26.848Z,173.73
2018-12-21T03:11:55.972Z,153.27
2018-12-21T03:14:25.052Z,181.07
2018-12-21T03:16:54.242Z,167.20
2018-12-21T03:19:23.368Z,175.23
2018-12-21T03:21:52.452Z,172.13
2018-12-21T03:24:21.544Z,208.00
2018-12-21T03:26:50.641Z,207.30
2018-12-21T03:29:19.709Z,200.27
2018-12-21T03:31:48.837Z,211.07
2018-12-21T03:34:17.938Z,200.47
2018-12-21T03:36:47.023Z,216.87
2018-12-21T03:39:16.096Z,200.97
2018-12-21T03:41:45.195Z,190.10
2018-12-21T03:44:14.263Z,194.30
2018-12-21T03:46:43.341Z,178.80
2018-12-21T03:49:12.433Z,187.83
2018-12-21T03:51:41.502Z,176.33
2018-12-21T03:54:10.658Z,175.63
2018-12-21T03:56:39.909Z,180.50
2018-12-21T03:59:09.039Z,168.13
2018-12-21T04:01:38.103Z,150.37
2018-12-21T04:04:07.200Z,166.50
2018-12-21T04:06:36.267Z,158.43
2018-12-21T04:09:05.341Z,166.23
2018-12-21T04:11:34.489Z,161.07
2018-12-21T04:14:03.634Z,172.10
2018-12-21T04:16:32.752Z,162.40
2018-12-21T04:19:01.898Z,165.40
2018-12-21T04:21:30.957Z,151.20
2018-12-21T04:24:00.034Z,163.23
2018-12-21T04:26:29.133Z,148.63
2018-12-21T04:28:58.197Z,168.17
2018-12-21T04:31:27.267Z,176.10
2018-12-21T04:33:56.368Z,186.23
2018-12-21T04:36:25.437Z,184.80
2018-12-21T04:38:54.527Z,228.77
2018-12-21T04:41:23.672Z,254.97
2018-12-21T04:43:52.753Z,222.03
2018-12-21T04:46:21.830Z,175.70
2018-12-21T04:48:50.929Z,158.23
2018-12-21T04:51:20.001Z,160.03
2018-12-21T04:53:49.087Z,166.07
2018-12-21T04:56:18.233Z,170.67
2018-12-21T04:58:47.307Z,183.30
2018-12-21T05:01:16.377Z,173.63
2018-12-21T05:03:45.498Z,183.53
2018-12-21T05:06:14.557Z,165.07
2018-12-21T05:08:43.622Z,178.43
2018-12-21T05:11:12.734Z,166.27
2018-12-21T05:13:41.796Z,180.07
2018-12-21T05:16:10.864Z,192.97
2018-12-21T05:18:39.968Z,205.57
2018-12-21T05:21:09.046Z,206.07
2018-12-21T05:23:38.123Z,208.77
2018-12-21T05:26:07.240Z,198.13
2018-12-21T05:28:36.305Z,199.63
2018-12-21T05:31:05.382Z,197.60
2018-12-21T05:33:34.481Z,179.83
2018-12-21T05:36:03.545Z,190.13
2018-12-21T05:38:32.617Z,188.50
2018-12-21T05:41:01.721Z,197.47
2018-12-21T05:43:30.803Z,250.40
2018-12-21T05:46:00.875Z,250.50
2018-12-21T05:48:30.009Z,264.77
2018-12-21T05:50:59.087Z,258.77
2018-12-21T05:53:28.166Z,274.73
2018-12-21T05:55:57.266Z,260.77
2018-12-21T05:58:26.454Z,258.47
2018-12-21T06:00:55.423Z,233.43
2018-12-21T06:03:24.527Z,211.27
2018-12-21T06:05:53.601Z,217.83
2018-12-21T06:08:22.685Z,216.80
2018-12-21T06:10:51.814Z,216.00
2018-12-21T06:13:20.880Z,278.60
2018-12-21T06:15:49.969Z,274.37
2018-12-21T06:18:19.086Z,262.00
2018-12-21T06:20:48.156Z,235.00
2018-12-21T06:23:17.235Z,217.93
2018-12-21T06:25:46.354Z,238.70
2018-12-21T06:28:15.439Z,236.57
2018-12-21T06:30:44.521Z,227.90
2018-12-21T06:33:13.821Z,221.83
2018-12-21T06:35:43.309Z,211.97
2018-12-21T06:38:12.381Z,190.40
2018-12-21T06:40:41.489Z,193.57
2018-12-21T06:43:10.565Z,217.00
2018-12-21T06:45:39.643Z,225.07
2018-12-21T06:48:08.755Z,200.50
2018-12-21T06:50:37.841Z,248.17
2018-12-21T06:53:06.916Z,212.73
2018-12-21T06:55:36.044Z,195.43
2018-12-21T06:58:05.121Z,178.53
2018-12-21T07:00:34.191Z,161.97
2018-12-21T07:03:03.290Z,167.57
2018-12-21T07:05:32.383Z,170.23
2018-12-21T07:08:01.453Z,162.40
2018-12-21T07:10:30.553Z,169.63
2018-12-21T07:12:59.623Z,177.97
2018-12-21T07:15:28.697Z,176.60
2018-12-21T07:17:57.817Z,213.60
2018-12-21T07:20:27.008Z,197.77
2018-12-21T07:22:56.400Z,205.40
2018-12-21T07:25:25.538Z,226.50
2018-12-21T07:27:54.628Z,225.23
2018-12-21T07:30:23.704Z,210.03
2018-12-21T07:32:52.807Z,236.30
2018-12-21T07:35:21.905Z,220.17
2018-12-21T07:37:50.981Z,227.10
2018-12-21T07:40:20.289Z,244.93
2018-12-21T07:42:49.369Z,253.67
2018-12-21T07:45:18.453Z,259.73
2018-12-21T07:47:47.567Z,321.30
2018-12-21T07:50:16.656Z,289.73
2018-12-21T07:52:45.748Z,230.30
2018-12-21T07:55:14.850Z,207.27
2018-12-21T07:57:43.936Z,195.30
2018-12-21T08:00:13.287Z,193.63
2018-12-21T08:02:42.493Z,214.63
2018-12-21T08:05:11.581Z,236.43
2018-12-21T08:07:40.658Z,212.43
2018-12-21T08:10:09.774Z,204.13
2018-12-21T08:12:38.843Z,180.27
2018-12-21T08:15:07.916Z,170.90
2018-12-21T08:17:37.006Z,178.83
2018-12-21T08:20:06.074Z,183.93
2018-12-21T08:22:35.148Z,178.90
2018-12-21T08:25:04.273Z,173.00
2018-12-21T08:27:48.045Z,190.83
2018-12-21T08:30:17.161Z,179.47
2018-12-21T08:32:46.227Z,168.70
2018-12-21T08:35:15.287Z,164.93
2018-12-21T08:37:44.749Z,164.53
2018-12-21T08:40:13.817Z,157.67
2018-12-21T08:42:42.893Z,147.17
2018-12-21T08:45:12.011Z,149.73
2018-12-21T08:47:41.078Z,149.47
2018-12-21T08:50:10.145Z,246.03
2018-12-21T08:52:39.240Z,254.73
2018-12-21T08:55:08.321Z,261.63
2018-12-21T08:57:37.386Z,255.37
2018-12-21T09:03:03.127Z,235.80
2018-12-21T09:05:32.321Z,226.20
2018-12-21T09:08:01.405Z,255.07
2018-12-21T09:10:30.481Z,269.40
2018-12-21T09:12:59.592Z,229.40
2018-12-21T09:15:28.681Z,274.33
2018-12-21T09:17:57.757Z,268.43
2018-12-21T09:20:26.869Z,245.70
2018-12-21T09:22:55.951Z,244.43
2018-12-21T09:25:25.051Z,240.00
2018-12-21T09:27:54.142Z,248.40
2018-12-21T09:30:23.232Z,229.53
2018-12-21T09:32:52.288Z,207.00
2018-12-21T09:35:21.536Z,324.17
2018-12-21T09:37:50.626Z,402.43
2018-12-21T09:40:19.706Z,322.17
2018-12-21T09:42:48.808Z,268.63
2018-12-21T09:45:17.878Z,202.93
2018-12-21T09:47:46.938Z,183.47
2018-12-21T09:50:16.032Z,183.13
2018-12-21T09:52:45.100Z,182.13
2018-12-21T09:55:14.162Z,180.63
2018-12-21T09:57:43.295Z,252.50
2018-12-21T10:00:12.366Z,254.43
2018-12-21T10:02:41.443Z,200.57
2018-12-21T10:05:10.560Z,224.50
2018-12-21T10:07:39.631Z,420.53
2018-12-21T10:10:08.714Z,431.07
2018-12-21T10:12:37.820Z,327.57
2018-12-21T10:15:06.920Z,308.97
2018-12-21T10:17:35.994Z,308.20
2018-12-21T10:20:05.533Z,334.30
2018-12-21T10:22:34.629Z,255.20
2018-12-21T10:25:04.042Z,209.27
2018-12-21T10:27:33.151Z,221.73
2018-12-21T10:30:02.224Z,201.03
2018-12-21T10:32:31.293Z,186.90
2018-12-21T10:35:00.412Z,211.67
2018-12-21T10:37:29.483Z,208.40
2018-12-21T10:39:58.555Z,201.10
2018-12-21T10:42:27.686Z,210.23
2018-12-21T10:44:56.758Z,188.43
2018-12-21T10:47:25.826Z,189.63
2018-12-21T10:49:54.924Z,191.97
2018-12-21T10:52:23.997Z,210.07
2018-12-21T10:54:53.067Z,196.77
2018-12-21T10:57:22.169Z,196.47
2018-12-21T10:59:51.229Z,184.57
2018-12-21T11:02:20.295Z,190.43
2018-12-21T11:04:49.448Z,228.60
2018-12-21T11:07:18.532Z,240.77
2018-12-21T11:09:47.606Z,231.77
2018-12-21T11:12:16.708Z,248.37
2018-12-21T11:14:45.784Z,250.17
2018-12-21T11:17:14.870Z,222.90
2018-12-21T11:19:43.963Z,230.43
2018-12-21T11:22:13.052Z,218.50
2018-12-21T11:24:42.139Z,207.80
2018-12-21T11:27:11.256Z,191.13
2018-12-21T11:29:40.329Z,205.17
2018-12-21T11:32:09.393Z,199.97
2018-12-21T11:34:38.503Z,201.67
2018-12-21T11:37:07.566Z,184.07
2018-12-21T11:39:36.633Z,169.83
2018-12-21T11:42:05.728Z,184.17
2018-12-21T11:44:34.802Z,184.37
2018-12-21T11:47:03.883Z,260.20
2018-12-21T11:49:33.011Z,205.10
2018-12-21T11:52:02.086Z,184.60
2018-12-21T11:54:31.150Z,190.70
2018-12-21T11:57:00.252Z,201.93
2018-12-21T11:59:29.440Z,191.53
2018-12-21T12:01:58.398Z,199.93
2018-12-21T12:04:27.483Z,209.67
2018-12-21T12:06:58.496Z,198.10
2018-12-21T12:09:27.568Z,204.33
2018-12-21T12:11:57.099Z,204.30
2018-12-21T12:14:26.171Z,201.93
2018-12-21T12:16:55.238Z,207.50
2018-12-21T12:19:24.347Z,202.67
2018-12-21T12:21:53.422Z,219.33
2018-12-21T12:24:22.507Z,217.17
2018-12-21T12:26:57.319Z,230.20
2018-12-21T12:29:26.400Z,248.23
2018-12-21T12:31:55.467Z,263.37
2018-12-21T12:34:24.570Z,243.47
2018-12-21T12:36:53.663Z,240.20
2018-12-21T12:39:22.742Z,267.03
2018-12-21T12:41:51.848Z,290.90
2018-12-21T12:44:20.925Z,327.97
2018-12-21T12:46:50.008Z,307.07
2018-12-21T12:49:19.109Z,315.43
2018-12-21T12:51:48.194Z,340.83
2018-12-21T12:54:17.271Z,314.97
2018-12-21T12:56:46.388Z,313.33
2018-12-21T12:59:15.465Z,351.33
2018-12-21T13:01:44.546Z,341.37
2018-12-21T13:04:13.639Z,449.87
2018-12-21T13:06:42.717Z,522.50
2018-12-21T13:09:11.776Z,529.47
2018-12-21T13:11:40.876Z,714.57
2018-12-21T13:14:09.967Z,446.97
2018-12-21T13:16:57.843Z,327.40
2018-12-21T13:19:26.928Z,318.27
2018-12-21T13:21:56.000Z,357.40
2018-12-21T13:24:25.106Z,350.83
2018-12-21T13:26:54.178Z,327.97
2018-12-21T13:29:23.292Z,555.33
2018-12-21T13:31:52.398Z,526.73
2018-12-21T13:34:21.483Z,531.30
2018-12-21T13:36:50.565Z,602.50
2018-12-21T13:39:19.724Z,592.10
2018-12-21T13:41:48.790Z,436.03
2018-12-21T13:44:17.871Z,415.97
2018-12-21T13:46:47.335Z,442.90
2018-12-21T13:49:16.426Z,374.70
2018-12-21T13:51:45.505Z,293.90
2018-12-21T13:54:14.610Z,294.93
2018-12-21T13:56:43.733Z,301.13
2018-12-21T13:59:12.813Z,249.57
2018-12-21T14:01:41.926Z,283.37
2018-12-21T14:04:11.025Z,423.23
2018-12-21T14:06:40.116Z,357.33
2018-12-21T14:09:09.221Z,321.87
2018-12-21T14:11:38.309Z,374.20
2018-12-21T14:14:07.398Z,410.90
2018-12-21T14:16:36.785Z,385.07
2018-12-21T14:19:05.869Z,280.17
2018-12-21T14:21:34.949Z,297.90
2018-12-21T14:24:04.074Z,241.43
2018-12-21T14:26:33.154Z,266.53
2018-12-21T14:29:02.235Z,276.47
2018-12-21T14:31:31.334Z,233.27
2018-12-21T14:34:00.407Z,227.90
2018-12-21T14:36:29.476Z,217.30
2018-12-21T14:38:58.573Z,255.37
2018-12-21T14:41:27.654Z,300.40
2018-12-21T14:43:56.728Z,299.77
2018-12-21T14:46:25.862Z,302.03
2018-12-21T14:48:54.941Z,297.00
2018-12-21T14:51:24.015Z,303.23
2018-12-21T14:53:53.116Z,391.43
2018-12-21T14:56:22.194Z,664.10
2018-12-21T14:58:51.274Z,739.43
2018-12-21T15:01:20.378Z,556.67
2018-12-21T15:03:49.450Z,532.40
2018-12-21T15:06:18.536Z,626.87
2018-12-21T15:08:47.648Z,822.73
2018-12-21T15:11:16.733Z,799.90
2018-12-21T15:13:45.814Z,671.53
2018-12-21T15:16:15.139Z,495.07
2018-12-21T15:18:44.236Z,460.77
2018-12-21T15:21:13.311Z,822.80
2018-12-21T15:23:42.411Z,965.33
2018-12-21T15:26:11.495Z,790.43
2018-12-21T15:28:40.571Z,593.87
2018-12-21T15:31:10.167Z,481.90
2018-12-21T15:33:39.241Z,392.30
2018-12-21T15:36:08.316Z,391.00
2018-12-21T15:38:37.424Z,329.50
2018-12-21T15:41:06.487Z,195.13
2018-12-21T15:43:35.566Z,196.60
2018-12-21T15:46:04.678Z,179.87
2018-12-21T15:48:33.774Z,169.03
2018-12-21T15:51:02.856Z,145.63
2018-12-21T15:53:31.977Z,172.67
2018-12-21T15:56:01.049Z,126.90
2018-12-21T15:58:30.103Z,90.30
2018-12-21T16:00:59.201Z,107.87
2018-12-21T16:03:28.277Z,102.87
2018-12-21T16:05:57.338Z,112.53
2018-12-21T16:08:26.444Z,103.23
2018-12-21T16:10:55.503Z,112.90
2018-12-21T16:13:24.588Z,215.47
2018-12-21T16:15:53.728Z,250.00
2018-12-21T16:18:22.811Z,359.70
2018-12-21T16:20:51.888Z,687.97
2018-12-21T16:23:21.000Z,427.33
2018-12-21T16:25:50.086Z,251.63
2018-12-21T16:28:19.159Z,350.70
2018-12-21T16:30:48.280Z,293.20
2018-12-21T16:33:17.351Z,317.33
2018-12-21T16:35:46.424Z,369.50
2018-12-21T16:38:16.029Z,356.03
2018-12-21T16:40:44.931Z,316.70
2018-12-21T16:43:14.008Z,272.20
2018-12-21T16:45:43.113Z,450.13
2018-12-21T16:48:12.183Z,258.87
2018-12-21T16:50:41.344Z,241.67
2018-12-21T16:53:10.366Z,178.97
2018-12-21T16:55:39.449Z,172.37
2018-12-21T16:58:08.517Z,150.63
2018-12-21T17:00:37.644Z,134.63
2018-12-21T17:03:15.382Z,152.83
2018-12-21T17:05:35.769Z,88.23
2018-12-21T17:08:04.863Z,85.83
2018-12-21T17:10:33.931Z,71.17
2018-12-21T17:13:03.022Z,82.60
2018-12-21T17:15:32.100Z,93.23
2018-12-21T17:18:01.154Z,75.80
2018-12-21T17:20:30.222Z,77.50
2018-12-21T17:23:00.732Z,110.47
2018-12-21T17:25:28.406Z,109.67
2018-12-21T17:27:57.479Z,119.37
2018-12-21T17:30:26.585Z,112.13
2018-12-21T17:32:55.668Z,119.80
2018-12-21T17:35:24.887Z,88.80
2018-12-21T17:37:53.997Z,82.73
2018-12-21T17:40:23.061Z,94.80
2018-12-21T17:42:52.124Z,92.33
2018-12-21T17:45:21.336Z,95.50
2018-12-21T17:47:50.400Z,92.47
2018-12-21T17:50:19.460Z,81.53
2018-12-21T17:52:48.554Z,99.60
2018-12-21T17:55:17.611Z,80.90
2018-12-21T17:57:46.673Z,123.47
2018-12-21T18:00:15.778Z,104.23
2018-12-21T18:02:44.847Z,124.70
2018-12-21T18:05:13.917Z,121.47
2018-12-21T18:07:43.059Z,139.90
2018-12-21T18:10:12.125Z,152.73
2018-12-21T18:12:41.203Z,167.33
2018-12-21T18:15:10.310Z,138.10
2018-12-21T18:17:57.384Z,182.57
2018-12-21T18:20:26.473Z,152.27
2018-12-21T18:22:55.533Z,156.67
2018-12-21T18:25:24.601Z,145.23
2018-12-21T18:27:53.752Z,165.33
2018-12-21T18:30:22.815Z,151.87
2018-12-21T18:32:51.892Z,152.57
2018-12-21T18:35:21.003Z,175.90
2018-12-21T18:37:50.066Z,138.27
2018-12-21T18:40:19.154Z,126.00
2018-12-21T18:42:48.504Z,122.50
2018-12-21T18:45:17.570Z,123.40
2018-12-21T18:47:46.650Z,151.67
2018-12-21T18:50:15.758Z,188.17
2018-12-21T18:52:44.837Z,215.50
2018-12-21T18:55:13.919Z,197.37
2018-12-21T18:57:43.012Z,199.20
2018-12-21T19:00:12.086Z,185.13
2018-12-21T19:02:41.155Z,175.23
2018-12-21T19:05:10.285Z,182.80
2018-12-21T19:07:39.362Z,206.47
2018-12-21T19:10:08.447Z,190.03
2018-12-21T19:12:37.580Z,154.50
2018-12-21T19:15:06.638Z,163.73
2018-12-21T19:17:35.715Z,182.00
2018-12-21T19:20:05.961Z,166.80
2018-12-21T19:22:33.887Z,181.33
2018-12-21T19:25:02.965Z,167.57
2018-12-21T19:27:32.068Z,169.90
2018-12-21T19:30:01.133Z,177.13
2018-12-21T19:32:30.209Z,173.33
2018-12-21T19:34:59.408Z,164.73
2018-12-21T19:37:28.781Z,164.40
2018-12-21T19:39:59.488Z,160.33
2018-12-21T19:42:27.042Z,155.43
2018-12-21T19:44:56.108Z,171.60
2018-12-21T19:47:26.191Z,209.83
2018-12-21T19:49:55.317Z,168.03
2018-12-21T19:52:24.390Z,205.00
2018-12-21T19:54:53.460Z,188.30
2018-12-21T19:57:43.489Z,200.40
2018-12-21T20:00:12.560Z,180.40
2018-12-21T20:02:41.626Z,149.80
2018-12-21T20:05:10.810Z,165.90
2018-12-21T20:07:39.877Z,209.37
2018-12-21T20:10:08.954Z,228.67
2018-12-21T20:12:38.071Z,183.23
2018-12-21T20:15:07.135Z,175.67
2018-12-21T20:17:36.213Z,191.00
2018-12-21T20:20:05.384Z,172.73
2018-12-21T20:22:34.458Z,174.60
2018-12-21T20:25:03.537Z,162.87
2018-12-21T20:27:32.638Z,145.40
2018-12-21T20:30:01.704Z,150.07
2018-12-21T20:32:30.779Z,170.13
2018-12-21T20:34:59.875Z,151.87
2018-12-21T20:37:28.949Z,160.50
2018-12-21T20:39:58.028Z,191.50
2018-12-21T20:42:27.172Z,153.23
2018-12-21T20:44:56.239Z,153.33
2018-12-21T20:47:44.323Z,165.23
2018-12-21T20:50:13.385Z,165.67
2018-12-21T20:52:42.466Z,162.00
2018-12-21T20:55:11.548Z,168.27
2018-12-21T20:57:40.627Z,157.37
2018-12-21T21:00:10.657Z,168.83
2018-12-21T21:02:39.785Z,170.07
2018-12-21T21:05:08.859Z,179.87
2018-12-21T21:07:37.927Z,147.33
2018-12-21T21:10:07.951Z,170.80
2018-12-21T21:12:37.022Z,144.27
2018-12-21T21:15:07.016Z,155.83
2018-12-21T21:17:36.110Z,154.23
2018-12-21T21:20:06.119Z,143.93
2018-12-21T21:22:35.184Z,149.37
2018-12-21T21:25:04.336Z,151.53
2018-12-21T21:27:33.402Z,150.60
2018-12-21T21:30:02.483Z,125.10
2018-12-21T21:32:31.569Z,130.97
2018-12-21T21:35:00.634Z,108.53
2018-12-21T21:37:29.709Z,115.70
2018-12-21T21:39:59.021Z,115.57
2018-12-21T21:42:28.089Z,134.43
2018-12-21T21:44:57.148Z,123.20
2018-12-21T21:47:26.250Z,129.83
2018-12-21T21:49:55.320Z,125.87
2018-12-21T21:52:24.403Z,115.53
2018-12-21T21:54:53.590Z,134.63
2018-12-21T21:57:22.656Z,133.97
2018-12-21T21:59:51.719Z,133.13
2018-12-21T22:02:20.819Z,130.40
2018-12-21T22:04:49.885Z,117.67
2018-12-21T22:07:19.056Z,122.10
2018-12-21T22:09:48.580Z,127.77
2018-12-21T22:12:17.654Z,139.37
2018-12-21T22:14:46.722Z,126.37
2018-12-21T22:17:15.819Z,134.10
2018-12-21T22:19:44.887Z,119.70
2018-12-21T22:22:13.959Z,129.93
2018-12-21T22:24:43.140Z,153.73
2018-12-21T22:27:12.207Z,136.23
2018-12-21T22:29:41.284Z,134.77
2018-12-21T22:32:10.476Z,139.33
2018-12-21T22:34:39.543Z,140.60
2018-12-21T22:37:10.574Z,153.00
2018-12-21T22:39:39.673Z,126.77
2018-12-21T22:42:08.733Z,119.20
2018-12-21T22:44:37.805Z,127.00
2018-12-21T22:47:06.901Z,123.60
2018-12-21T22:49:35.966Z,153.67
2018-12-21T22:52:05.036Z,123.70
2018-12-21T22:54:34.137Z,114.80
2018-12-21T22:57:03.201Z,108.73
2018-12-21T22:59:32.264Z,108.30
2018-12-21T23:02:01.358Z,99.03
2018-12-21T23:04:30.419Z,106.43
2018-12-21T23:06:59.493Z,116.67
2018-12-21T23:09:28.599Z,107.00
2018-12-21T23:11:57.675Z,115.47
2018-12-21T23:14:26.747Z,123.50
2018-12-21T23:16:59.552Z,112.67
2018-12-21T23:19:28.619Z,136.43
2018-12-21T23:21:57.681Z,124.13
2018-12-21T23:24:26.774Z,105.17
2018-12-21T23:26:55.844Z,117.73
2018-12-21T23:29:24.908Z,115.77
2018-12-21T23:31:54.004Z,115.10
2018-12-21T23:34:23.074Z,112.07
2018-12-21T23:36:52.142Z,106.30
2018-12-21T23:39:21.258Z,111.10
2018-12-21T23:41:50.456Z,119.33
2018-12-21T23:44:19.518Z,100.93
2018-12-21T23:46:48.644Z,122.73
2018-12-21T23:49:17.705Z,146.27
2018-12-21T23:51:46.780Z,123.63
2018-12-21T23:54:15.918Z,115.93
2018-12-21T23:56:44.951Z,119.57
2018-12-21T23:59:14.021Z,120.50
